createdAt,value
2022-10-09T00:00:45.755Z,7.4
2022-10-09T00:06:23.098Z,7.3
2022-10-09T00:11:59.911Z,7.4
2022-10-09T00:17:38.493Z,7.4
2022-10-09T00:23:14.942Z,7.4
2022-10-09T00:28:55.412Z,7.4
2022-10-09T00:34:18.239Z,7.6
2022-10-09T00:39:54.682Z,7.4
2022-10-09T00:45:16.193Z,7.6
2022-10-09T00:50:54.829Z,7.6
2022-10-09T00:56:32.633Z,7.6
2022-10-09T01:02:10.244Z,7.3
2022-10-09T01:07:48.065Z,7
2022-10-09T01:13:24.687Z,7
2022-10-09T01:19:02.173Z,6.9
2022-10-09T01:24:40.209Z,6.9
2022-10-09T01:30:01.383Z,6.9
2022-10-09T01:35:38.160Z,6.8
2022-10-09T01:41:00.460Z,7.1
2022-10-09T01:46:37.876Z,7.2
2022-10-09T01:51:59.691Z,7.1
2022-10-09T01:57:22.373Z,7.3
2022-10-09T02:02:59.334Z,7.4
2022-10-09T02:08:20.711Z,7.3
2022-10-09T02:13:58.250Z,7.3
2022-10-09T02:19:20.680Z,7.4
2022-10-09T02:25:02.477Z,7.4
2022-10-09T02:30:45.974Z,7.4
2022-10-09T02:36:22.286Z,7.8
2022-10-09T02:41:58.405Z,7.3
2022-10-09T02:47:35.674Z,7
2022-10-09T02:53:12.192Z,6.7
2022-10-09T02:58:37.219Z,6.5
2022-10-09T03:04:16.188Z,6.3
2022-10-09T03:09:37.959Z,6.2
2022-10-09T03:14:59.009Z,6.3
2022-10-09T03:20:05.936Z,6.2
2022-10-09T03:25:27.437Z,6.3
2022-10-09T03:30:48.951Z,6.1
2022-10-09T03:36:24.845Z,6.1
2022-10-09T03:41:45.821Z,6.1
2022-10-09T03:46:36.933Z,6.1
2022-10-09T03:51:43.094Z,6.2
2022-10-09T03:57:04.664Z,5.9
2022-10-09T04:02:11.721Z,6.1
2022-10-09T04:07:33.976Z,6.2
2022-10-09T04:12:54.470Z,5.9
2022-10-09T04:18:15.843Z,6
2022-10-09T04:23:39.016Z,5.9
2022-10-09T04:28:44.975Z,5.7
2022-10-09T04:34:07.452Z,5.8
2022-10-09T04:39:13.372Z,5.8
2022-10-09T04:44:35.376Z,6
2022-10-09T04:49:59.785Z,5.9
2022-10-09T04:55:26.702Z,6
2022-10-09T05:00:48.271Z,6.1
2022-10-09T05:06:27.366Z,6
2022-10-09T05:12:04.647Z,6
2022-10-09T05:18:13.032Z,6.1
2022-10-09T05:23:50.826Z,6.4
2022-10-09T05:29:16.383Z,6.8
2022-10-09T05:34:57.536Z,7.3
2022-10-09T05:40:35.568Z,7.8
2022-10-09T05:46:13.987Z,8.3
2022-10-09T05:51:51.196Z,8.7
2022-10-09T05:57:32.323Z,9
2022-10-09T06:03:11.079Z,8.9
2022-10-09T06:08:48.381Z,9.3
2022-10-09T06:14:31.298Z,9.8
2022-10-09T06:20:12.937Z,10.1
2022-10-09T06:25:55.410Z,10.3
2022-10-09T06:31:33.939Z,10.4
2022-10-09T06:37:17.394Z,11.6
2022-10-09T06:42:54.210Z,11.6
2022-10-09T06:48:32.247Z,11.7
2022-10-09T06:54:10.432Z,12
2022-10-09T06:59:47.739Z,12.1
2022-10-09T07:05:26.507Z,12.9
2022-10-09T07:11:04.266Z,13.1
2022-10-09T07:16:42.432Z,13.8
2022-10-09T07:22:22.540Z,14.3
2022-10-09T07:28:01.594Z,14.1
2022-10-09T07:33:40.457Z,15.1
2022-10-09T07:39:17.436Z,15.5
2022-10-09T07:44:55.371Z,15.6
2022-10-09T07:50:32.979Z,16
2022-10-09T07:56:10.670Z,16.3
2022-10-09T08:01:36.847Z,16.4
2022-10-09T08:07:14.943Z,17.1
2022-10-09T08:12:56.358Z,17.6
2022-10-09T08:18:35.522Z,18.8
2022-10-09T08:24:12.047Z,19
2022-10-09T08:29:54.452Z,19.1
2022-10-09T08:35:34.618Z,18.6
2022-10-09T08:41:36.286Z,18.4
2022-10-09T08:46:43.109Z,19.3
2022-10-09T08:52:20.872Z,20.2
2022-10-09T08:57:42.819Z,19.8
2022-10-09T09:03:21.321Z,20.1
2022-10-09T09:08:59.729Z,20.6
2022-10-09T09:14:22.207Z,19.9
2022-10-09T09:19:59.205Z,20.9
2022-10-09T09:25:21.830Z,20.7
2022-10-09T09:30:46.959Z,21.9
2022-10-09T09:36:12.774Z,21
2022-10-09T09:42:54.684Z,21.6
2022-10-09T09:48:00.703Z,21
2022-10-09T09:54:18.976Z,22.5
2022-10-09T09:59:51.070Z,22.1
2022-10-09T10:04:59.833Z,22
2022-10-09T10:10:25.252Z,24
2022-10-09T10:15:47.796Z,22.6
2022-10-09T10:21:15.911Z,23.9
2022-10-09T10:26:40.790Z,24.4
2022-10-09T10:32:03.804Z,24.6
2022-10-09T10:37:26.103Z,24.9
2022-10-09T10:43:03.400Z,25.2
2022-10-09T10:48:26.379Z,24.3
2022-10-09T10:53:49.931Z,24.1
2022-10-09T10:59:30.180Z,23.4
2022-10-09T11:04:43.719Z,24.2
2022-10-09T11:10:21.288Z,23.1
2022-10-09T11:16:05.387Z,23.1
2022-10-09T11:21:30.695Z,23.8
2022-10-09T11:26:37.283Z,24.4
2022-10-09T11:32:00.273Z,26
2022-10-09T11:37:38.167Z,24.4
2022-10-09T11:48:16.951Z,23.6
2022-10-09T11:53:39.480Z,25.9
2022-10-09T11:59:00.756Z,24.8
2022-10-09T12:04:32.266Z,25.8
2022-10-09T12:10:04.733Z,24.5
2022-10-09T12:15:27.361Z,25.5
2022-10-09T12:21:08.144Z,24.5
2022-10-09T12:26:55.037Z,23.7
2022-10-09T12:32:32.674Z,24.9
2022-10-09T12:38:10.231Z,24
2022-10-09T12:43:54.765Z,24.9
2022-10-09T12:49:31.903Z,25.1
2022-10-09T12:55:10.302Z,25
2022-10-09T13:00:49.946Z,26.3
2022-10-09T13:06:28.719Z,25.9
2022-10-09T13:12:06.073Z,24.5
2022-10-09T13:17:44.231Z,26.1
2022-10-09T13:23:25.530Z,25.3
2022-10-09T13:29:03.727Z,25.8
2022-10-09T13:34:41.546Z,25.2
2022-10-09T13:40:20.618Z,25.5
2022-10-09T13:45:58.166Z,24.7
2022-10-09T13:51:39.610Z,24.3
2022-10-09T13:57:17.896Z,24.7
2022-10-09T14:02:57.500Z,24.8
2022-10-09T14:08:35.373Z,24.4
2022-10-09T14:14:12.539Z,23.8
2022-10-09T14:19:50.455Z,23.6
2022-10-09T14:25:31.009Z,23.7
2022-10-09T14:31:08.935Z,23.2
2022-10-09T14:36:50.407Z,22.7
2022-10-09T14:42:47.138Z,22.4
2022-10-09T14:48:09.683Z,22.3
2022-10-09T14:53:46.474Z,21.7
2022-10-09T14:59:23.630Z,21.9
2022-10-09T15:05:01.986Z,21.5
2022-10-09T15:10:40.133Z,21.9
2022-10-09T15:16:22.953Z,21.7
2022-10-09T15:21:59.917Z,20.4
2022-10-09T15:27:37.553Z,20
2022-10-09T15:33:16.948Z,19.6
2022-10-09T15:38:59.503Z,19.4
2022-10-09T15:44:38.025Z,19
2022-10-09T15:50:43.806Z,18.8
2022-10-09T15:56:04.645Z,18.4
2022-10-09T16:01:45.486Z,18.1
2022-10-09T16:07:23.789Z,17.8
2022-10-09T16:13:10.592Z,17.6
2022-10-09T16:18:51.391Z,17.3
2022-10-09T16:24:15.762Z,17.2
2022-10-09T16:35:15.230Z,16.8
2022-10-09T16:41:01.654Z,16.5
2022-10-09T16:46:30.446Z,16.4
2022-10-09T16:51:57.716Z,16.3
2022-10-09T16:57:35.642Z,16.2
2022-10-09T17:02:58.680Z,16.1
2022-10-09T17:08:36.080Z,15.9
2022-10-09T17:14:19.371Z,15.5
2022-10-09T17:19:43.152Z,15.4
2022-10-09T17:25:21.166Z,15.4
2022-10-09T17:30:44.310Z,15.1
2022-10-09T17:36:27.527Z,15.1
2022-10-09T17:42:10.159Z,15
2022-10-09T17:47:37.443Z,15.1
2022-10-09T17:52:43.999Z,15.3
2022-10-09T17:58:10.545Z,15
2022-10-09T18:03:33.633Z,14.9
2022-10-09T18:14:17.556Z,14.8
2022-10-09T18:19:45.342Z,14.7
2022-10-09T18:25:07.797Z,14.6
2022-10-09T18:30:49.926Z,14.5
2022-10-09T18:36:15.067Z,14.4
2022-10-09T18:41:52.533Z,14.3
2022-10-09T18:47:30.126Z,14.3
2022-10-09T18:53:09.093Z,14.3
2022-10-09T18:58:49.295Z,14.1
2022-10-09T19:04:35.404Z,14.1
2022-10-09T19:10:14.119Z,14.1
2022-10-09T19:15:52.370Z,13.9
2022-10-09T19:21:30.024Z,13.8
2022-10-09T19:27:11.983Z,13.6
2022-10-09T19:32:53.090Z,13.6
2022-10-09T19:38:34.683Z,13.3
2022-10-09T19:44:12.755Z,12.9
2022-10-09T19:49:38.825Z,12.7
2022-10-09T19:55:15.517Z,12.5
2022-10-09T20:00:37.410Z,12.3
2022-10-09T20:06:15.013Z,12.1
2022-10-09T20:11:40.973Z,12
2022-10-09T20:17:21.280Z,12.1
2022-10-09T20:22:43.631Z,12.2
2022-10-09T20:28:10.871Z,12.1
2022-10-09T20:33:49.718Z,12
2022-10-09T20:39:16.228Z,11.9
2022-10-09T20:44:53.872Z,11.8
2022-10-09T20:50:15.806Z,11.6
2022-10-09T20:55:53.368Z,11.6
2022-10-09T21:01:04.317Z,11.6
2022-10-09T21:06:11.329Z,11.7
2022-10-09T21:11:51.335Z,11.9
2022-10-09T21:17:13.705Z,12.2
2022-10-09T21:22:57.100Z,11.8
2022-10-09T21:28:33.730Z,11.9
2022-10-09T21:34:01.138Z,11.9
2022-10-09T21:40:01.257Z,11.9
2022-10-09T21:45:38.493Z,11.9
2022-10-09T21:51:14.716Z,11.9
2022-10-09T21:56:52.807Z,11.9
2022-10-09T22:02:16.451Z,11.8
2022-10-09T22:07:54.166Z,11.6
2022-10-09T22:13:32.940Z,11.5
2022-10-09T22:18:58.580Z,11.6
2022-10-09T22:24:36.712Z,11.6
2022-10-09T22:30:15.069Z,11.6
2022-10-09T22:35:52.542Z,11.4
2022-10-09T22:41:28.803Z,11.6
2022-10-09T22:47:06.698Z,11.5
2022-10-09T22:52:27.128Z,11.5
2022-10-09T22:57:48.746Z,11.4
2022-10-09T23:03:26.047Z,11.3
2022-10-09T23:09:03.614Z,11.1
2022-10-09T23:14:25.465Z,10.9
2022-10-09T23:19:48.811Z,10.7
2022-10-09T23:25:10.381Z,10.5
2022-10-09T23:30:47.561Z,10.3
2022-10-09T23:36:25.620Z,10.1
2022-10-09T23:42:01.604Z,10.1
2022-10-09T23:47:29.034Z,10.1
2022-10-09T23:53:07.114Z,10.1
2022-10-09T23:58:28.049Z,9.8
